sensor_id;sensor_type;location;lat;lon;timestamp;P1;durP1;ratioP1;P2;durP2;ratioP2
33270;SDS011;53180;51.344;6.152;2023-04-22T00:01:49;4.80;;;2.35;;
33270;SDS011;53180;51.344;6.152;2023-04-22T00:04:17;3.65;;;2.38;;
33270;SDS011;53180;51.344;6.152;2023-04-22T00:06:46;2.30;;;2.10;;
33270;SDS011;53180;51.344;6.152;2023-04-22T00:09:15;2.70;;;1.95;;
33270;SDS011;53180;51.344;6.152;2023-04-22T00:11:43;2.10;;;1.90;;
33270;SDS011;53180;51.344;6.152;2023-04-22T00:14:11;1.80;;;1.70;;
33270;SDS011;53180;51.344;6.152;2023-04-22T00:16:39;2.10;;;1.90;;
33270;SDS011;53180;51.344;6.152;2023-04-22T00:19:09;2.20;;;2.05;;
33270;SDS011;53180;51.344;6.152;2023-04-22T00:21:38;2.10;;;1.90;;
33270;SDS011;53180;51.344;6.152;2023-04-22T00:24:06;3.75;;;2.15;;
33270;SDS011;53180;51.344;6.152;2023-04-22T00:26:34;2.35;;;2.15;;
33270;SDS011;53180;51.344;6.152;2023-04-22T00:29:02;2.03;;;1.92;;
33270;SDS011;53180;51.344;6.152;2023-04-22T00:31:31;3.03;;;2.58;;
33270;SDS011;53180;51.344;6.152;2023-04-22T00:33:59;2.35;;;2.15;;
33270;SDS011;53180;51.344;6.152;2023-04-22T00:36:29;2.00;;;1.80;;
33270;SDS011;53180;51.344;6.152;2023-04-22T00:38:57;2.35;;;2.15;;
33270;SDS011;53180;51.344;6.152;2023-04-22T00:41:27;1.80;;;1.70;;
33270;SDS011;53180;51.344;6.152;2023-04-22T00:43:56;2.35;;;2.15;;
33270;SDS011;53180;51.344;6.152;2023-04-22T00:46:26;2.45;;;2.25;;
33270;SDS011;53180;51.344;6.152;2023-04-22T00:48:55;2.95;;;2.35;;
33270;SDS011;53180;51.344;6.152;2023-04-22T00:51:24;4.70;;;2.47;;
33270;SDS011;53180;51.344;6.152;2023-04-22T00:53:54;3.08;;;2.65;;
33270;SDS011;53180;51.344;6.152;2023-04-22T00:56:22;2.70;;;2.50;;
33270;SDS011;53180;51.344;6.152;2023-04-22T00:58:53;3.03;;;2.40;;
33270;SDS011;53180;51.344;6.152;2023-04-22T01:01:22;2.85;;;2.55;;
33270;SDS011;53180;51.344;6.152;2023-04-22T01:03:51;2.70;;;2.50;;
33270;SDS011;53180;51.344;6.152;2023-04-22T01:06:20;3.33;;;2.83;;
33270;SDS011;53180;51.344;6.152;2023-04-22T01:08:51;2.97;;;2.72;;
33270;SDS011;53180;51.344;6.152;2023-04-22T01:11:21;4.78;;;3.20;;
33270;SDS011;53180;51.344;6.152;2023-04-22T01:13:50;4.40;;;3.25;;
33270;SDS011;53180;51.344;6.152;2023-04-22T01:16:18;4.10;;;3.05;;
33270;SDS011;53180;51.344;6.152;2023-04-22T01:18:47;3.15;;;2.75;;
33270;SDS011;53180;51.344;6.152;2023-04-22T01:21:16;3.72;;;3.13;;
33270;SDS011;53180;51.344;6.152;2023-04-22T01:23:46;3.53;;;3.10;;
33270;SDS011;53180;51.344;6.152;2023-04-22T01:26:14;3.22;;;2.78;;
33270;SDS011;53180;51.344;6.152;2023-04-22T01:28:43;4.03;;;3.15;;
33270;SDS011;53180;51.344;6.152;2023-04-22T01:31:11;3.67;;;2.90;;
33270;SDS011;53180;51.344;6.152;2023-04-22T01:33:40;4.53;;;3.15;;
33270;SDS011;53180;51.344;6.152;2023-04-22T01:36:09;4.35;;;3.22;;
33270;SDS011;53180;51.344;6.152;2023-04-22T01:38:38;3.50;;;2.95;;
33270;SDS011;53180;51.344;6.152;2023-04-22T01:41:08;3.15;;;2.85;;
33270;SDS011;53180;51.344;6.152;2023-04-22T01:43:36;2.95;;;2.63;;
33270;SDS011;53180;51.344;6.152;2023-04-22T01:46:05;4.65;;;3.58;;
33270;SDS011;53180;51.344;6.152;2023-04-22T01:48:35;4.40;;;3.67;;
33270;SDS011;53180;51.344;6.152;2023-04-22T01:51:04;5.60;;;3.70;;
33270;SDS011;53180;51.344;6.152;2023-04-22T01:53:32;5.90;;;3.78;;
33270;SDS011;53180;51.344;6.152;2023-04-22T01:56:00;4.57;;;3.40;;
33270;SDS011;53180;51.344;6.152;2023-04-22T01:58:31;4.88;;;3.78;;
33270;SDS011;53180;51.344;6.152;2023-04-22T02:01:01;3.85;;;3.35;;
33270;SDS011;53180;51.344;6.152;2023-04-22T02:03:29;5.88;;;3.95;;
33270;SDS011;53180;51.344;6.152;2023-04-22T02:05:57;4.85;;;4.05;;
33270;SDS011;53180;51.344;6.152;2023-04-22T02:08:25;5.00;;;3.55;;
33270;SDS011;53180;51.344;6.152;2023-04-22T02:10:54;5.18;;;4.25;;
33270;SDS011;53180;51.344;6.152;2023-04-22T02:13:23;4.90;;;4.07;;
33270;SDS011;53180;51.344;6.152;2023-04-22T02:15:53;5.32;;;3.70;;
33270;SDS011;53180;51.344;6.152;2023-04-22T02:18:21;7.18;;;4.03;;
33270;SDS011;53180;51.344;6.152;2023-04-22T02:20:49;3.58;;;3.08;;
33270;SDS011;53180;51.344;6.152;2023-04-22T02:23:17;5.72;;;3.53;;
33270;SDS011;53180;51.344;6.152;2023-04-22T02:25:49;5.72;;;4.22;;
33270;SDS011;53180;51.344;6.152;2023-04-22T02:28:18;6.30;;;4.35;;
33270;SDS011;53180;51.344;6.152;2023-04-22T02:30:46;6.60;;;4.68;;
33270;SDS011;53180;51.344;6.152;2023-04-22T02:33:16;5.80;;;4.35;;
33270;SDS011;53180;51.344;6.152;2023-04-22T02:35:44;4.97;;;4.20;;
33270;SDS011;53180;51.344;6.152;2023-04-22T02:38:12;6.60;;;4.88;;
33270;SDS011;53180;51.344;6.152;2023-04-22T02:40:41;8.43;;;5.10;;
33270;SDS011;53180;51.344;6.152;2023-04-22T02:43:09;6.90;;;4.85;;
33270;SDS011;53180;51.344;6.152;2023-04-22T02:45:37;6.22;;;4.78;;
33270;SDS011;53180;51.344;6.152;2023-04-22T02:48:06;6.72;;;4.75;;
33270;SDS011;53180;51.344;6.152;2023-04-22T02:50:35;7.47;;;4.28;;
33270;SDS011;53180;51.344;6.152;2023-04-22T02:53:03;4.90;;;3.88;;
33270;SDS011;53180;51.344;6.152;2023-04-22T02:55:32;5.85;;;4.57;;
33270;SDS011;53180;51.344;6.152;2023-04-22T02:58:00;6.25;;;4.78;;
33270;SDS011;53180;51.344;6.152;2023-04-22T03:00:28;6.03;;;4.50;;
33270;SDS011;53180;51.344;6.152;2023-04-22T03:02:56;8.20;;;5.25;;
33270;SDS011;53180;51.344;6.152;2023-04-22T03:05:25;7.28;;;4.75;;
33270;SDS011;53180;51.344;6.152;2023-04-22T03:07:55;9.52;;;5.57;;
33270;SDS011;53180;51.344;6.152;2023-04-22T03:10:23;10.10;;;5.82;;
33270;SDS011;53180;51.344;6.152;2023-04-22T03:12:51;9.43;;;5.40;;
33270;SDS011;53180;51.344;6.152;2023-04-22T03:15:19;7.25;;;5.28;;
33270;SDS011;53180;51.344;6.152;2023-04-22T03:17:48;8.73;;;5.15;;
33270;SDS011;53180;51.344;6.152;2023-04-22T03:20:16;8.15;;;5.35;;
33270;SDS011;53180;51.344;6.152;2023-04-22T03:22:45;7.15;;;4.60;;
33270;SDS011;53180;51.344;6.152;2023-04-22T03:25:15;7.18;;;5.07;;
33270;SDS011;53180;51.344;6.152;2023-04-22T03:27:43;6.80;;;5.03;;
33270;SDS011;53180;51.344;6.152;2023-04-22T03:30:12;6.20;;;4.68;;
33270;SDS011;53180;51.344;6.152;2023-04-22T03:32:40;7.53;;;4.85;;
33270;SDS011;53180;51.344;6.152;2023-04-22T03:35:09;9.27;;;5.32;;
33270;SDS011;53180;51.344;6.152;2023-04-22T03:37:37;5.65;;;4.65;;
33270;SDS011;53180;51.344;6.152;2023-04-22T03:40:06;7.45;;;5.18;;
33270;SDS011;53180;51.344;6.152;2023-04-22T03:42:40;8.40;;;5.38;;
33270;SDS011;53180;51.344;6.152;2023-04-22T03:45:09;9.88;;;4.80;;
33270;SDS011;53180;51.344;6.152;2023-04-22T03:47:37;6.78;;;5.10;;
33270;SDS011;53180;51.344;6.152;2023-04-22T03:50:06;6.50;;;4.38;;
33270;SDS011;53180;51.344;6.152;2023-04-22T03:52:34;7.85;;;5.57;;
33270;SDS011;53180;51.344;6.152;2023-04-22T03:55:03;8.27;;;5.57;;
33270;SDS011;53180;51.344;6.152;2023-04-22T03:57:32;7.50;;;5.68;;
33270;SDS011;53180;51.344;6.152;2023-04-22T04:00:02;7.93;;;5.45;;
33270;SDS011;53180;51.344;6.152;2023-04-22T04:05:00;6.50;;;4.60;;
33270;SDS011;53180;51.344;6.152;2023-04-22T04:07:28;8.23;;;5.03;;
33270;SDS011;53180;51.344;6.152;2023-04-22T04:09:57;8.48;;;5.35;;
33270;SDS011;53180;51.344;6.152;2023-04-22T04:12:25;8.75;;;5.60;;
33270;SDS011;53180;51.344;6.152;2023-04-22T04:14:53;8.10;;;5.68;;
33270;SDS011;53180;51.344;6.152;2023-04-22T04:17:23;8.82;;;5.88;;
33270;SDS011;53180;51.344;6.152;2023-04-22T04:19:52;7.88;;;5.55;;
33270;SDS011;53180;51.344;6.152;2023-04-22T04:22:21;8.30;;;5.35;;
33270;SDS011;53180;51.344;6.152;2023-04-22T04:24:49;9.85;;;6.00;;
33270;SDS011;53180;51.344;6.152;2023-04-22T04:27:21;7.97;;;5.55;;
33270;SDS011;53180;51.344;6.152;2023-04-22T04:29:49;8.80;;;5.47;;
33270;SDS011;53180;51.344;6.152;2023-04-22T04:32:18;10.50;;;6.90;;
33270;SDS011;53180;51.344;6.152;2023-04-22T04:34:48;8.02;;;5.47;;
33270;SDS011;53180;51.344;6.152;2023-04-22T04:37:17;13.13;;;6.18;;
33270;SDS011;53180;51.344;6.152;2023-04-22T04:39:47;7.93;;;5.22;;
33270;SDS011;53180;51.344;6.152;2023-04-22T04:42:15;8.18;;;5.55;;
33270;SDS011;53180;51.344;6.152;2023-04-22T04:44:45;8.18;;;5.55;;
33270;SDS011;53180;51.344;6.152;2023-04-22T04:47:13;9.70;;;5.70;;
33270;SDS011;53180;51.344;6.152;2023-04-22T04:49:42;9.20;;;5.40;;
33270;SDS011;53180;51.344;6.152;2023-04-22T04:52:12;8.65;;;5.60;;
33270;SDS011;53180;51.344;6.152;2023-04-22T04:54:40;12.95;;;6.50;;
33270;SDS011;53180;51.344;6.152;2023-04-22T04:57:09;7.45;;;5.03;;
33270;SDS011;53180;51.344;6.152;2023-04-22T04:59:37;11.25;;;6.22;;
33270;SDS011;53180;51.344;6.152;2023-04-22T05:02:06;11.60;;;6.60;;
33270;SDS011;53180;51.344;6.152;2023-04-22T05:04:34;8.90;;;5.78;;
33270;SDS011;53180;51.344;6.152;2023-04-22T05:07:03;11.98;;;6.25;;
33270;SDS011;53180;51.344;6.152;2023-04-22T05:09:33;14.02;;;5.43;;
33270;SDS011;53180;51.344;6.152;2023-04-22T05:12:03;9.50;;;5.53;;
33270;SDS011;53180;51.344;6.152;2023-04-22T05:14:31;9.00;;;5.88;;
33270;SDS011;53180;51.344;6.152;2023-04-22T05:17:00;10.38;;;5.40;;
33270;SDS011;53180;51.344;6.152;2023-04-22T05:19:28;10.52;;;6.18;;
33270;SDS011;53180;51.344;6.152;2023-04-22T05:21:57;8.88;;;5.22;;
33270;SDS011;53180;51.344;6.152;2023-04-22T05:24:25;9.07;;;5.90;;
33270;SDS011;53180;51.344;6.152;2023-04-22T05:26:54;7.75;;;5.72;;
33270;SDS011;53180;51.344;6.152;2023-04-22T05:29:23;7.28;;;4.93;;
33270;SDS011;53180;51.344;6.152;2023-04-22T05:31:51;9.77;;;6.35;;
33270;SDS011;53180;51.344;6.152;2023-04-22T05:34:20;9.82;;;5.35;;
33270;SDS011;53180;51.344;6.152;2023-04-22T05:36:48;9.05;;;5.65;;
33270;SDS011;53180;51.344;6.152;2023-04-22T05:39:16;6.20;;;4.53;;
33270;SDS011;53180;51.344;6.152;2023-04-22T05:41:45;8.68;;;5.75;;
33270;SDS011;53180;51.344;6.152;2023-04-22T05:44:14;7.93;;;4.95;;
33270;SDS011;53180;51.344;6.152;2023-04-22T05:46:43;9.40;;;5.30;;
33270;SDS011;53180;51.344;6.152;2023-04-22T05:49:12;8.45;;;5.50;;
33270;SDS011;53180;51.344;6.152;2023-04-22T05:51:40;18.00;;;5.07;;
33270;SDS011;53180;51.344;6.152;2023-04-22T05:54:08;9.90;;;5.80;;
33270;SDS011;53180;51.344;6.152;2023-04-22T05:56:37;7.35;;;4.95;;
33270;SDS011;53180;51.344;6.152;2023-04-22T05:59:05;11.07;;;5.90;;
33270;SDS011;53180;51.344;6.152;2023-04-22T06:01:35;12.75;;;6.10;;
33270;SDS011;53180;51.344;6.152;2023-04-22T06:04:04;10.43;;;5.40;;
33270;SDS011;53180;51.344;6.152;2023-04-22T06:06:32;8.88;;;5.65;;
33270;SDS011;53180;51.344;6.152;2023-04-22T06:09:00;6.80;;;5.32;;
33270;SDS011;53180;51.344;6.152;2023-04-22T06:11:29;8.45;;;5.18;;
33270;SDS011;53180;51.344;6.152;2023-04-22T06:13:57;9.95;;;5.18;;
33270;SDS011;53180;51.344;6.152;2023-04-22T06:16:25;11.02;;;5.60;;
33270;SDS011;53180;51.344;6.152;2023-04-22T06:18:56;8.48;;;5.50;;
33270;SDS011;53180;51.344;6.152;2023-04-22T06:21:24;9.32;;;5.50;;
33270;SDS011;53180;51.344;6.152;2023-04-22T06:23:52;8.20;;;5.13;;
33270;SDS011;53180;51.344;6.152;2023-04-22T06:26:21;10.43;;;5.55;;
33270;SDS011;53180;51.344;6.152;2023-04-22T06:28:49;7.95;;;5.15;;
33270;SDS011;53180;51.344;6.152;2023-04-22T06:31:17;8.45;;;5.00;;
33270;SDS011;53180;51.344;6.152;2023-04-22T06:33:46;8.10;;;5.60;;
33270;SDS011;53180;51.344;6.152;2023-04-22T06:36:16;9.13;;;5.53;;
33270;SDS011;53180;51.344;6.152;2023-04-22T06:38:44;8.10;;;5.15;;
33270;SDS011;53180;51.344;6.152;2023-04-22T06:41:12;15.00;;;5.28;;
33270;SDS011;53180;51.344;6.152;2023-04-22T06:43:41;9.60;;;5.40;;
33270;SDS011;53180;51.344;6.152;2023-04-22T06:46:09;8.43;;;5.20;;
33270;SDS011;53180;51.344;6.152;2023-04-22T06:48:37;12.82;;;4.63;;
33270;SDS011;53180;51.344;6.152;2023-04-22T06:51:05;7.63;;;4.88;;
33270;SDS011;53180;51.344;6.152;2023-04-22T06:53:35;19.45;;;5.07;;
33270;SDS011;53180;51.344;6.152;2023-04-22T06:56:03;6.38;;;4.50;;
33270;SDS011;53180;51.344;6.152;2023-04-22T06:58:32;6.50;;;3.95;;
33270;SDS011;53180;51.344;6.152;2023-04-22T07:01:01;5.10;;;3.92;;
33270;SDS011;53180;51.344;6.152;2023-04-22T07:03:29;43.53;;;20.90;;
33270;SDS011;53180;51.344;6.152;2023-04-22T07:05:58;19.27;;;8.95;;
33270;SDS011;53180;51.344;6.152;2023-04-22T07:08:26;24.75;;;12.00;;
33270;SDS011;53180;51.344;6.152;2023-04-22T07:10:57;5.80;;;3.75;;
33270;SDS011;53180;51.344;6.152;2023-04-22T07:13:25;6.13;;;3.80;;
33270;SDS011;53180;51.344;6.152;2023-04-22T07:15:54;6.32;;;3.88;;
33270;SDS011;53180;51.344;6.152;2023-04-22T07:18:22;6.95;;;3.50;;
33270;SDS011;53180;51.344;6.152;2023-04-22T07:20:51;6.18;;;3.65;;
33270;SDS011;53180;51.344;6.152;2023-04-22T07:23:19;3.78;;;2.72;;
33270;SDS011;53180;51.344;6.152;2023-04-22T07:25:48;4.50;;;2.70;;
33270;SDS011;53180;51.344;6.152;2023-04-22T07:28:17;3.95;;;2.83;;
33270;SDS011;53180;51.344;6.152;2023-04-22T07:30:45;6.50;;;3.47;;
33270;SDS011;53180;51.344;6.152;2023-04-22T07:33:14;12.85;;;5.88;;
33270;SDS011;53180;51.344;6.152;2023-04-22T07:35:42;7.03;;;3.63;;
33270;SDS011;53180;51.344;6.152;2023-04-22T07:38:10;5.60;;;3.25;;
33270;SDS011;53180;51.344;6.152;2023-04-22T07:40:40;5.30;;;3.10;;
33270;SDS011;53180;51.344;6.152;2023-04-22T07:43:08;4.45;;;2.53;;
33270;SDS011;53180;51.344;6.152;2023-04-22T07:45:37;5.00;;;2.97;;
33270;SDS011;53180;51.344;6.152;2023-04-22T07:48:06;5.90;;;3.25;;
33270;SDS011;53180;51.344;6.152;2023-04-22T07:50:34;3.78;;;2.90;;
33270;SDS011;53180;51.344;6.152;2023-04-22T07:53:04;4.55;;;2.47;;
33270;SDS011;53180;51.344;6.152;2023-04-22T07:55:32;7.70;;;3.30;;
33270;SDS011;53180;51.344;6.152;2023-04-22T07:58:00;5.22;;;3.17;;
33270;SDS011;53180;51.344;6.152;2023-04-22T08:03:01;3.67;;;2.38;;
33270;SDS011;53180;51.344;6.152;2023-04-22T08:05:30;5.40;;;2.40;;
33270;SDS011;53180;51.344;6.152;2023-04-22T08:07:59;4.60;;;2.50;;
33270;SDS011;53180;51.344;6.152;2023-04-22T08:10:27;3.20;;;2.47;;
33270;SDS011;53180;51.344;6.152;2023-04-22T08:12:55;4.05;;;2.30;;
33270;SDS011;53180;51.344;6.152;2023-04-22T08:15:23;3.97;;;2.50;;
33270;SDS011;53180;51.344;6.152;2023-04-22T08:17:52;3.75;;;2.17;;
33270;SDS011;53180;51.344;6.152;2023-04-22T08:20:21;3.65;;;2.28;;
33270;SDS011;53180;51.344;6.152;2023-04-22T08:22:50;3.40;;;1.98;;
33270;SDS011;53180;51.344;6.152;2023-04-22T08:25:25;2.75;;;2.00;;
33270;SDS011;53180;51.344;6.152;2023-04-22T08:27:53;3.38;;;2.08;;
33270;SDS011;53180;51.344;6.152;2023-04-22T08:30:22;3.83;;;2.15;;
33270;SDS011;53180;51.344;6.152;2023-04-22T08:32:53;3.03;;;1.98;;
33270;SDS011;53180;51.344;6.152;2023-04-22T08:35:23;4.05;;;2.05;;
33270;SDS011;53180;51.344;6.152;2023-04-22T08:37:51;8.68;;;2.17;;
33270;SDS011;53180;51.344;6.152;2023-04-22T08:40:20;2.15;;;1.80;;
33270;SDS011;53180;51.344;6.152;2023-04-22T08:42:48;5.53;;;2.30;;
33270;SDS011;53180;51.344;6.152;2023-04-22T08:45:18;3.67;;;2.15;;
33270;SDS011;53180;51.344;6.152;2023-04-22T08:47:47;4.45;;;2.20;;
33270;SDS011;53180;51.344;6.152;2023-04-22T08:50:16;4.18;;;1.98;;
33270;SDS011;53180;51.344;6.152;2023-04-22T08:52:49;6.13;;;2.25;;
33270;SDS011;53180;51.344;6.152;2023-04-22T08:55:17;3.95;;;1.90;;
33270;SDS011;53180;51.344;6.152;2023-04-22T08:57:46;3.70;;;1.90;;
33270;SDS011;53180;51.344;6.152;2023-04-22T09:00:15;2.78;;;1.45;;
33270;SDS011;53180;51.344;6.152;2023-04-22T09:02:45;2.95;;;1.42;;
33270;SDS011;53180;51.344;6.152;2023-04-22T09:05:15;2.17;;;1.50;;
33270;SDS011;53180;51.344;6.152;2023-04-22T09:07:44;2.35;;;1.40;;
33270;SDS011;53180;51.344;6.152;2023-04-22T09:10:14;1.50;;;1.17;;
33270;SDS011;53180;51.344;6.152;2023-04-22T09:12:43;2.42;;;1.33;;
33270;SDS011;53180;51.344;6.152;2023-04-22T09:15:13;3.22;;;1.35;;
33270;SDS011;53180;51.344;6.152;2023-04-22T09:17:41;2.50;;;1.60;;
33270;SDS011;53180;51.344;6.152;2023-04-22T09:20:10;2.60;;;1.60;;
33270;SDS011;53180;51.344;6.152;2023-04-22T09:22:42;2.00;;;1.40;;
33270;SDS011;53180;51.344;6.152;2023-04-22T09:25:15;1.85;;;1.38;;
33270;SDS011;53180;51.344;6.152;2023-04-22T09:27:47;1.88;;;1.38;;
33270;SDS011;53180;51.344;6.152;2023-04-22T09:30:17;2.25;;;1.58;;
33270;SDS011;53180;51.344;6.152;2023-04-22T09:32:53;2.60;;;1.77;;
33270;SDS011;53180;51.344;6.152;2023-04-22T09:35:26;2.10;;;1.30;;
33270;SDS011;53180;51.344;6.152;2023-04-22T09:37:57;2.30;;;1.45;;
33270;SDS011;53180;51.344;6.152;2023-04-22T09:40:28;2.17;;;1.35;;
33270;SDS011;53180;51.344;6.152;2023-04-22T09:42:59;3.35;;;1.70;;
33270;SDS011;53180;51.344;6.152;2023-04-22T09:45:29;1.90;;;1.42;;
33270;SDS011;53180;51.344;6.152;2023-04-22T09:50:29;7.18;;;1.67;;
33270;SDS011;53180;51.344;6.152;2023-04-22T09:52:58;2.47;;;1.30;;
33270;SDS011;53180;51.344;6.152;2023-04-22T09:55:31;4.78;;;1.30;;
33270;SDS011;53180;51.344;6.152;2023-04-22T09:58:06;2.35;;;1.20;;
33270;SDS011;53180;51.344;6.152;2023-04-22T10:00:39;3.60;;;1.42;;
33270;SDS011;53180;51.344;6.152;2023-04-22T10:03:10;1.83;;;1.20;;
33270;SDS011;53180;51.344;6.152;2023-04-22T10:05:38;2.65;;;1.50;;
33270;SDS011;53180;51.344;6.152;2023-04-22T10:08:08;2.30;;;1.30;;
33270;SDS011;53180;51.344;6.152;2023-04-22T10:10:38;2.75;;;1.58;;
33270;SDS011;53180;51.344;6.152;2023-04-22T10:13:07;2.13;;;1.15;;
33270;SDS011;53180;51.344;6.152;2023-04-22T10:15:37;3.22;;;1.52;;
33270;SDS011;53180;51.344;6.152;2023-04-22T10:18:07;4.47;;;1.63;;
33270;SDS011;53180;51.344;6.152;2023-04-22T10:20:39;1.40;;;1.10;;
33270;SDS011;53180;51.344;6.152;2023-04-22T10:23:11;2.05;;;1.10;;
33270;SDS011;53180;51.344;6.152;2023-04-22T10:25:43;1.65;;;1.27;;
33270;SDS011;53180;51.344;6.152;2023-04-22T10:28:16;2.00;;;1.50;;
33270;SDS011;53180;51.344;6.152;2023-04-22T10:30:47;2.80;;;1.20;;
33270;SDS011;53180;51.344;6.152;2023-04-22T10:36:14;1.67;;;1.00;;
33270;SDS011;53180;51.344;6.152;2023-04-22T10:41:50;2.17;;;1.20;;
33270;SDS011;53180;51.344;6.152;2023-04-22T10:44:21;1.33;;;1.05;;
33270;SDS011;53180;51.344;6.152;2023-04-22T10:46:58;2.30;;;1.40;;
33270;SDS011;53180;51.344;6.152;2023-04-22T10:49:30;2.35;;;1.30;;
33270;SDS011;53180;51.344;6.152;2023-04-22T10:52:00;2.10;;;1.20;;
33270;SDS011;53180;51.344;6.152;2023-04-22T10:57:29;1.35;;;1.10;;
33270;SDS011;53180;51.344;6.152;2023-04-22T11:00:16;1.80;;;1.20;;
33270;SDS011;53180;51.344;6.152;2023-04-22T11:02:50;1.65;;;1.00;;
33270;SDS011;53180;51.344;6.152;2023-04-22T11:05:22;2.08;;;1.20;;
33270;SDS011;53180;51.344;6.152;2023-04-22T11:07:53;1.17;;;0.95;;
33270;SDS011;53180;51.344;6.152;2023-04-22T11:10:35;1.73;;;1.15;;
33270;SDS011;53180;51.344;6.152;2023-04-22T11:13:12;2.50;;;1.40;;
33270;SDS011;53180;51.344;6.152;2023-04-22T11:15:42;2.53;;;1.45;;
33270;SDS011;53180;51.344;6.152;2023-04-22T11:18:13;1.58;;;1.02;;
33270;SDS011;53180;51.344;6.152;2023-04-22T11:20:45;1.90;;;1.40;;
33270;SDS011;53180;51.344;6.152;2023-04-22T11:25:46;2.85;;;1.42;;
33270;SDS011;53180;51.344;6.152;2023-04-22T11:28:15;2.22;;;1.17;;
33270;SDS011;53180;51.344;6.152;2023-04-22T11:30:48;2.25;;;1.08;;
33270;SDS011;53180;51.344;6.152;2023-04-22T11:33:17;3.05;;;1.30;;
33270;SDS011;53180;51.344;6.152;2023-04-22T11:35:47;2.00;;;1.25;;
33270;SDS011;53180;51.344;6.152;2023-04-22T11:38:16;1.85;;;1.30;;
33270;SDS011;53180;51.344;6.152;2023-04-22T11:40:45;2.65;;;1.42;;
33270;SDS011;53180;51.344;6.152;2023-04-22T11:43:15;2.75;;;1.30;;
33270;SDS011;53180;51.344;6.152;2023-04-22T11:45:44;1.60;;;1.13;;
33270;SDS011;53180;51.344;6.152;2023-04-22T11:48:13;2.13;;;1.25;;
33270;SDS011;53180;51.344;6.152;2023-04-22T11:50:42;1.45;;;1.00;;
33270;SDS011;53180;51.344;6.152;2023-04-22T11:53:13;2.00;;;1.35;;
33270;SDS011;53180;51.344;6.152;2023-04-22T11:55:44;1.70;;;1.20;;
33270;SDS011;53180;51.344;6.152;2023-04-22T11:58:18;1.90;;;1.25;;
33270;SDS011;53180;51.344;6.152;2023-04-22T12:00:52;2.53;;;1.20;;
33270;SDS011;53180;51.344;6.152;2023-04-22T12:03:22;4.10;;;1.23;;
33270;SDS011;53180;51.344;6.152;2023-04-22T12:05:53;1.88;;;1.05;;
33270;SDS011;53180;51.344;6.152;2023-04-22T12:10:53;1.95;;;1.10;;
33270;SDS011;53180;51.344;6.152;2023-04-22T12:13:25;2.20;;;1.08;;
33270;SDS011;53180;51.344;6.152;2023-04-22T12:15:56;2.08;;;1.20;;
33270;SDS011;53180;51.344;6.152;2023-04-22T12:18:29;2.03;;;1.30;;
33270;SDS011;53180;51.344;6.152;2023-04-22T12:20:58;1.58;;;1.10;;
33270;SDS011;53180;51.344;6.152;2023-04-22T12:23:27;4.95;;;1.40;;
33270;SDS011;53180;51.344;6.152;2023-04-22T12:25:55;1.17;;;0.90;;
33270;SDS011;53180;51.344;6.152;2023-04-22T12:28:25;1.73;;;1.20;;
33270;SDS011;53180;51.344;6.152;2023-04-22T12:30:53;1.20;;;0.70;;
33270;SDS011;53180;51.344;6.152;2023-04-22T12:33:22;1.33;;;0.88;;
33270;SDS011;53180;51.344;6.152;2023-04-22T12:35:50;3.03;;;1.05;;
33270;SDS011;53180;51.344;6.152;2023-04-22T12:38:18;1.00;;;0.80;;
33270;SDS011;53180;51.344;6.152;2023-04-22T12:40:46;3.40;;;1.25;;
33270;SDS011;53180;51.344;6.152;2023-04-22T12:43:16;1.95;;;0.98;;
33270;SDS011;53180;51.344;6.152;2023-04-22T12:45:46;1.63;;;0.95;;
33270;SDS011;53180;51.344;6.152;2023-04-22T12:48:14;2.65;;;1.35;;
33270;SDS011;53180;51.344;6.152;2023-04-22T12:50:42;1.70;;;1.10;;
33270;SDS011;53180;51.344;6.152;2023-04-22T12:53:11;1.95;;;0.98;;
33270;SDS011;53180;51.344;6.152;2023-04-22T12:55:39;17.55;;;8.23;;
33270;SDS011;53180;51.344;6.152;2023-04-22T12:58:11;2.35;;;1.38;;
33270;SDS011;53180;51.344;6.152;2023-04-22T13:00:39;3.78;;;1.50;;
33270;SDS011;53180;51.344;6.152;2023-04-22T13:03:09;7.15;;;3.72;;
33270;SDS011;53180;51.344;6.152;2023-04-22T13:05:37;4.63;;;2.30;;
33270;SDS011;53180;51.344;6.152;2023-04-22T13:08:06;2.60;;;1.48;;
33270;SDS011;53180;51.344;6.152;2023-04-22T13:10:34;1.58;;;1.20;;
33270;SDS011;53180;51.344;6.152;2023-04-22T13:13:03;1.80;;;1.20;;
33270;SDS011;53180;51.344;6.152;2023-04-22T13:15:43;2.15;;;1.33;;
33270;SDS011;53180;51.344;6.152;2023-04-22T13:18:14;2.67;;;1.48;;
33270;SDS011;53180;51.344;6.152;2023-04-22T13:20:43;1.90;;;1.48;;
33270;SDS011;53180;51.344;6.152;2023-04-22T13:23:12;2.50;;;1.30;;
33270;SDS011;53180;51.344;6.152;2023-04-22T13:25:42;1.70;;;1.20;;
33270;SDS011;53180;51.344;6.152;2023-04-22T13:28:10;2.53;;;1.30;;
33270;SDS011;53180;51.344;6.152;2023-04-22T13:30:39;1.98;;;1.40;;
33270;SDS011;53180;51.344;6.152;2023-04-22T13:33:07;1.23;;;1.08;;
33270;SDS011;53180;51.344;6.152;2023-04-22T13:35:37;2.00;;;1.30;;
33270;SDS011;53180;51.344;6.152;2023-04-22T13:38:05;1.80;;;1.33;;
33270;SDS011;53180;51.344;6.152;2023-04-22T13:40:34;2.97;;;1.60;;
33270;SDS011;53180;51.344;6.152;2023-04-22T13:43:02;2.22;;;1.55;;
33270;SDS011;53180;51.344;6.152;2023-04-22T13:45:31;2.05;;;1.63;;
33270;SDS011;53180;51.344;6.152;2023-04-22T13:47:59;2.65;;;1.50;;
33270;SDS011;53180;51.344;6.152;2023-04-22T13:50:28;1.63;;;1.10;;
33270;SDS011;53180;51.344;6.152;2023-04-22T13:52:57;2.22;;;1.30;;
33270;SDS011;53180;51.344;6.152;2023-04-22T13:55:26;1.75;;;1.00;;
33270;SDS011;53180;51.344;6.152;2023-04-22T13:57:54;5.43;;;1.40;;
33270;SDS011;53180;51.344;6.152;2023-04-22T14:00:22;2.85;;;1.25;;
33270;SDS011;53180;51.344;6.152;2023-04-22T14:02:51;0.95;;;0.77;;
33270;SDS011;53180;51.344;6.152;2023-04-22T14:05:19;1.73;;;1.02;;
33270;SDS011;53180;51.344;6.152;2023-04-22T14:07:47;2.42;;;1.40;;
33270;SDS011;53180;51.344;6.152;2023-04-22T14:10:17;1.42;;;1.20;;
33270;SDS011;53180;51.344;6.152;2023-04-22T14:12:47;2.60;;;1.60;;
33270;SDS011;53180;51.344;6.152;2023-04-22T14:15:16;2.45;;;1.23;;
33270;SDS011;53180;51.344;6.152;2023-04-22T14:17:44;12.45;;;1.75;;
33270;SDS011;53180;51.344;6.152;2023-04-22T14:20:14;0.90;;;0.77;;
33270;SDS011;53180;51.344;6.152;2023-04-22T14:22:43;4.28;;;1.05;;
33270;SDS011;53180;51.344;6.152;2023-04-22T14:25:11;3.03;;;1.17;;
33270;SDS011;53180;51.344;6.152;2023-04-22T14:27:41;0.93;;;0.70;;
33270;SDS011;53180;51.344;6.152;2023-04-22T14:30:09;0.93;;;0.63;;
33270;SDS011;53180;51.344;6.152;2023-04-22T14:32:39;0.60;;;0.45;;
33270;SDS011;53180;51.344;6.152;2023-04-22T14:35:09;1.35;;;0.50;;
33270;SDS011;53180;51.344;6.152;2023-04-22T14:37:37;6.10;;;1.75;;
33270;SDS011;53180;51.344;6.152;2023-04-22T14:40:07;1.13;;;0.70;;
33270;SDS011;53180;51.344;6.152;2023-04-22T14:42:37;1.23;;;0.82;;
33270;SDS011;53180;51.344;6.152;2023-04-22T14:45:07;2.33;;;1.48;;
33270;SDS011;53180;51.344;6.152;2023-04-22T14:50:05;2.22;;;1.55;;
33270;SDS011;53180;51.344;6.152;2023-04-22T14:52:34;4.20;;;1.48;;
33270;SDS011;53180;51.344;6.152;2023-04-22T14:55:02;1.27;;;0.93;;
33270;SDS011;53180;51.344;6.152;2023-04-22T14:57:48;1.02;;;0.73;;
33270;SDS011;53180;51.344;6.152;2023-04-22T15:00:19;1.30;;;0.83;;
33270;SDS011;53180;51.344;6.152;2023-04-22T15:02:48;0.80;;;0.70;;
33270;SDS011;53180;51.344;6.152;2023-04-22T15:05:17;0.63;;;0.63;;
33270;SDS011;53180;51.344;6.152;2023-04-22T15:07:45;0.60;;;0.60;;
33270;SDS011;53180;51.344;6.152;2023-04-22T15:10:14;0.70;;;0.70;;
33270;SDS011;53180;51.344;6.152;2023-04-22T15:12:43;1.02;;;0.70;;
33270;SDS011;53180;51.344;6.152;2023-04-22T15:15:11;0.80;;;0.77;;
33270;SDS011;53180;51.344;6.152;2023-04-22T15:17:42;0.70;;;0.70;;
33270;SDS011;53180;51.344;6.152;2023-04-22T15:20:12;2.72;;;0.80;;
33270;SDS011;53180;51.344;6.152;2023-04-22T15:22:42;2.95;;;0.70;;